Time;durP1;ratioP1;P1;durP2;ratioP2;P2;SDS_P1;SDS_P2;PMS_P1;PMS_P2;Temp;Humidity;BMP_temperature;BMP_pressure;BME280_temperature;BME280_humidity;BME280_pressure;Samples;Min_cycle;Max_cycle;Signal;HPM_P1;HPM_P2
2023/09/17 00:01:09;;;;;;;9.05;6.40;;;19.90;99.90;;;;;;5047754;28;20211;-72
2023/09/17 00:03:36;;;;;;;9.30;5.78;;;19.80;99.90;;;;;;5044749;28;20229;-73
2023/09/17 00:06:02;;;;;;;7.03;5.35;;;19.70;99.90;;;;;;5046888;28;20770;-72
2023/09/17 00:08:27;;;;;;;9.25;5.70;;;19.70;99.90;;;;;;5044833;28;20215;-72
2023/09/17 00:10:53;;;;;;;10.65;6.35;;;19.70;99.90;;;;;;5049166;28;20196;-73
2023/09/17 00:13:19;;;;;;;7.45;5.82;;;19.70;99.90;;;;;;5047700;28;20255;-74
2023/09/17 00:15:45;;;;;;;11.20;5.65;;;19.70;99.90;;;;;;5049893;28;20176;-73
2023/09/17 00:18:12;;;;;;;7.70;6.25;;;19.60;99.90;;;;;;5049341;28;20180;-71
2023/09/17 00:20:37;;;;;;;7.32;6.35;;;19.60;99.90;;;;;;5048099;28;20200;-73
2023/09/17 00:23:03;;;;;;;7.78;5.68;;;19.50;99.90;;;;;;5049938;28;20215;-70
2023/09/17 00:25:29;;;;;;;8.35;5.95;;;19.60;99.90;;;;;;5049779;28;20218;-73
2023/09/17 00:27:55;;;;;;;8.85;6.18;;;19.50;99.90;;;;;;5051086;28;20207;-73
2023/09/17 00:30:20;;;;;;;7.90;6.13;;;19.60;99.90;;;;;;5047074;28;20168;-73
2023/09/17 00:32:46;;;;;;;9.27;6.38;;;19.50;99.90;;;;;;5045969;28;20203;-73
2023/09/17 00:35:11;;;;;;;8.38;6.10;;;19.50;99.90;;;;;;5043918;28;20202;-70
2023/09/17 00:37:38;;;;;;;7.30;5.65;;;19.60;99.90;;;;;;5045063;28;20203;-73
2023/09/17 00:40:09;;;;;;;9.05;5.93;;;19.60;99.90;;;;;;5043601;28;20227;-73
2023/09/17 00:42:36;;;;;;;9.93;6.15;;;19.60;99.90;;;;;;5044566;28;20185;-73
2023/09/17 00:45:02;;;;;;;9.80;6.22;;;19.50;99.90;;;;;;5046017;28;20219;-73
2023/09/17 00:47:29;;;;;;;8.75;5.68;;;19.50;99.90;;;;;;5042870;28;20211;-73
2023/09/17 00:49:55;;;;;;;9.02;6.05;;;19.50;99.90;;;;;;5047373;28;20215;-73
2023/09/17 00:52:21;;;;;;;9.45;6.20;;;19.50;99.90;;;;;;5047288;28;20700;-73
2023/09/17 00:54:49;;;;;;;9.60;5.55;;;19.50;99.90;;;;;;5051449;28;20302;-73
2023/09/17 00:57:16;;;;;;;8.10;6.00;;;19.50;99.90;;;;;;5047767;28;20176;-73
2023/09/17 00:59:47;;;;;;;7.63;5.93;;;19.40;99.90;;;;;;5046241;28;20208;-72
2023/09/17 01:02:18;;;;;;;9.68;6.50;;;19.50;99.90;;;;;;5047030;28;20211;-71
2023/09/17 01:04:49;;;;;;;7.78;5.65;;;19.40;99.90;;;;;;5059145;28;20208;-73
2023/09/17 01:07:18;;;;;;;7.97;5.85;;;19.40;99.90;;;;;;5040200;28;20234;-73
2023/09/17 01:09:44;;;;;;;8.73;6.10;;;19.50;99.90;;;;;;5049661;28;20199;-73
2023/09/17 01:12:11;;;;;;;10.32;6.53;;;19.50;99.90;;;;;;5050020;28;20195;-73
2023/09/17 01:14:37;;;;;;;7.82;6.18;;;19.50;99.90;;;;;;5042877;28;20689;-73
2023/09/17 01:17:06;;;;;;;8.30;5.78;;;19.50;99.90;;;;;;5044320;28;20310;-73
2023/09/17 01:19:32;;;;;;;6.68;5.97;;;19.50;99.90;;;;;;5050819;28;20203;-73
2023/09/17 01:22:34;;;;;;;7.72;6.10;;;19.50;99.90;;;;;;5046588;28;20176;-73
2023/09/17 01:25:18;;;;;;;8.23;5.95;;;19.50;99.90;;;;;;5042932;28;20363;-72
2023/09/17 01:27:44;;;;;;;9.65;6.10;;;19.50;99.90;;;;;;5044510;28;20176;-74
2023/09/17 01:30:19;;;;;;;8.95;6.28;;;19.50;99.90;;;;;;5041491;28;20214;-73
2023/09/17 01:32:45;;;;;;;8.43;6.40;;;19.50;99.90;;;;;;5045650;28;20200;-73
2023/09/17 01:35:14;;;;;;;8.68;6.35;;;19.50;99.90;;;;;;5046580;28;20211;-71
2023/09/17 01:37:44;;;;;;;9.23;6.25;;;19.40;99.90;;;;;;5047070;28;20227;-73
2023/09/17 01:40:14;;;;;;;7.90;5.70;;;19.40;99.90;;;;;;5046384;28;20281;-73
2023/09/17 01:42:43;;;;;;;9.07;6.55;;;19.30;99.90;;;;;;5047607;28;20635;-72
2023/09/17 01:45:14;;;;;;;11.43;6.75;;;19.20;99.90;;;;;;5044699;28;20602;-73
2023/09/17 01:47:42;;;;;;;8.27;5.97;;;19.10;99.90;;;;;;5049076;28;20199;-72
2023/09/17 01:50:09;;;;;;;9.45;6.57;;;19.10;99.90;;;;;;5049852;28;20346;-73
2023/09/17 01:52:36;;;;;;;7.75;6.30;;;19.10;99.90;;;;;;5042981;28;20208;-73
2023/09/17 01:55:02;;;;;;;8.73;6.47;;;19.00;99.90;;;;;;5042504;28;20223;-72
2023/09/17 01:57:28;;;;;;;9.23;6.65;;;19.00;99.90;;;;;;5049912;28;20254;-72
2023/09/17 01:59:54;;;;;;;7.95;5.75;;;19.00;99.90;;;;;;5039434;28;20286;-72
2023/09/17 02:02:19;;;;;;;11.13;7.15;;;19.00;99.90;;;;;;5042729;28;20582;-72
2023/09/17 02:04:46;;;;;;;10.38;6.38;;;19.00;99.90;;;;;;5040290;28;20215;-73
2023/09/17 02:07:15;;;;;;;12.90;6.32;;;18.90;99.90;;;;;;5044537;28;20208;-73
2023/09/17 02:09:40;;;;;;;10.48;7.47;;;18.90;99.90;;;;;;5043997;28;20196;-71
2023/09/17 02:12:06;;;;;;;9.18;6.95;;;18.90;99.90;;;;;;5043243;28;20583;-71
2023/09/17 02:14:31;;;;;;;10.27;6.97;;;18.80;99.90;;;;;;5047652;28;20222;-71
2023/09/17 02:16:57;;;;;;;8.25;5.88;;;18.90;99.90;;;;;;5048832;28;20253;-71
2023/09/17 02:19:25;;;;;;;11.05;7.22;;;18.80;99.90;;;;;;5048658;28;20203;-71
2023/09/17 02:21:51;;;;;;;8.98;6.53;;;18.80;99.90;;;;;;5045010;28;20283;-71
2023/09/17 02:24:16;;;;;;;11.20;7.18;;;18.80;99.90;;;;;;5046253;28;20655;-71
2023/09/17 02:26:42;;;;;;;9.15;6.57;;;18.70;99.90;;;;;;5050142;28;20263;-71
2023/09/17 02:29:08;;;;;;;10.15;6.68;;;18.80;99.90;;;;;;5048284;28;20555;-71
2023/09/17 02:31:33;;;;;;;8.10;6.55;;;18.70;99.90;;;;;;5046418;28;20482;-71
2023/09/17 02:33:59;;;;;;;9.57;6.75;;;18.70;99.90;;;;;;5048576;28;20218;-71
2023/09/17 02:36:25;;;;;;;11.40;6.85;;;18.70;99.90;;;;;;5050078;28;20179;-71
2023/09/17 02:38:50;;;;;;;8.27;6.85;;;18.70;99.90;;;;;;5051960;28;20211;-71
2023/09/17 02:41:16;;;;;;;8.48;6.55;;;18.70;99.90;;;;;;5053277;28;20207;-70
2023/09/17 02:43:41;;;;;;;10.07;6.18;;;18.70;99.90;;;;;;5054054;28;20215;-71
2023/09/17 02:46:07;;;;;;;10.10;6.88;;;18.70;99.90;;;;;;5053975;28;20290;-72
2023/09/17 02:48:33;;;;;;;10.38;6.80;;;18.70;99.90;;;;;;5048770;28;20672;-71
2023/09/17 02:50:59;;;;;;;8.13;6.07;;;18.70;99.90;;;;;;5049112;28;20207;-71
2023/09/17 02:53:25;;;;;;;7.75;5.90;;;18.60;99.90;;;;;;5047529;28;20394;-71
2023/09/17 02:55:52;;;;;;;8.05;6.38;;;18.60;99.90;;;;;;5052523;28;20290;-70
2023/09/17 02:58:17;;;;;;;6.70;5.85;;;18.70;99.90;;;;;;5053258;28;20741;-71
2023/09/17 03:00:44;;;;;;;10.23;7.50;;;18.60;99.90;;;;;;5052172;28;20270;-70
2023/09/17 03:03:10;;;;;;;11.80;6.45;;;18.70;99.90;;;;;;5053487;28;20219;-72
2023/09/17 03:05:38;;;;;;;8.82;6.07;;;18.60;99.90;;;;;;5053037;28;20207;-72
2023/09/17 03:08:08;;;;;;;10.10;6.38;;;18.60;99.90;;;;;;5052016;28;20215;-72
2023/09/17 03:10:41;;;;;;;7.97;5.70;;;18.60;99.90;;;;;;5045724;28;20207;-72
2023/09/17 03:13:07;;;;;;;8.82;6.20;;;18.60;99.90;;;;;;5047639;28;20273;-72
2023/09/17 03:15:33;;;;;;;9.00;6.80;;;18.50;99.90;;;;;;5053325;28;20703;-71
2023/09/17 03:17:59;;;;;;;10.45;6.75;;;18.60;99.90;;;;;;5053605;28;20306;-72
2023/09/17 03:20:27;;;;;;;10.70;6.53;;;18.50;99.90;;;;;;5052393;28;20323;-72
2023/09/17 03:22:53;;;;;;;10.73;6.85;;;18.50;99.90;;;;;;5047408;28;20207;-71
2023/09/17 03:25:19;;;;;;;9.02;6.75;;;18.50;99.90;;;;;;5051785;28;20302;-72
2023/09/17 03:27:45;;;;;;;10.48;8.02;;;18.50;99.90;;;;;;5053390;28;20226;-72
2023/09/17 03:30:12;;;;;;;10.25;6.82;;;18.50;99.90;;;;;;5052977;28;20195;-69
2023/09/17 03:32:37;;;;;;;9.05;7.40;;;18.50;99.90;;;;;;5047295;28;20211;-71
2023/09/17 03:35:05;;;;;;;9.80;7.32;;;18.40;99.90;;;;;;5046546;28;20211;-72
2023/09/17 03:37:31;;;;;;;8.60;6.68;;;18.40;99.90;;;;;;5046962;28;20581;-71
2023/09/17 03:40:11;;;;;;;11.35;7.68;;;18.40;99.90;;;;;;5052641;28;20191;-71
2023/09/17 03:42:40;;;;;;;12.25;7.97;;;18.40;99.90;;;;;;5053138;28;20244;-72
2023/09/17 03:45:09;;;;;;;11.93;7.72;;;18.30;99.90;;;;;;5052803;28;20208;-72
2023/09/17 03:47:36;;;;;;;10.30;7.68;;;18.30;99.90;;;;;;5052746;28;20211;-71
2023/09/17 03:50:04;;;;;;;9.88;7.65;;;18.40;99.90;;;;;;5050677;28;20222;-71
2023/09/17 03:52:31;;;;;;;13.50;7.85;;;18.30;99.90;;;;;;5042420;28;20212;-71
2023/09/17 03:54:57;;;;;;;11.27;8.23;;;18.30;99.90;;;;;;5052318;28;20473;-71
2023/09/17 03:57:23;;;;;;;10.30;7.95;;;18.30;99.90;;;;;;5053077;28;20179;-71
2023/09/17 03:59:49;;;;;;;11.98;7.68;;;18.20;99.90;;;;;;5050689;28;20252;-71
2023/09/17 04:02:17;;;;;;;10.50;7.78;;;18.20;99.90;;;;;;5052761;28;20713;-72
2023/09/17 04:04:42;;;;;;;11.50;7.47;;;18.20;99.90;;;;;;5048424;28;20209;-72
2023/09/17 04:07:08;;;;;;;10.18;7.30;;;18.20;99.90;;;;;;5048885;28;20337;-72
2023/09/17 04:09:35;;;;;;;9.27;7.65;;;18.20;99.90;;;;;;5049731;28;20284;-72
2023/09/17 04:12:04;;;;;;;10.93;7.60;;;18.10;99.90;;;;;;5052327;28;20633;-72
2023/09/17 04:14:34;;;;;;;10.15;7.32;;;18.00;99.90;;;;;;5058082;23;20226;-77
2023/09/17 04:17:00;;;;;;;15.18;8.40;;;18.00;99.90;;;;;;5030088;28;20204;-77
2023/09/17 04:19:28;;;;;;;10.20;7.22;;;18.00;99.90;;;;;;5029674;28;20205;-78
2023/09/17 04:21:54;;;;;;;10.23;7.63;;;18.00;99.90;;;;;;5038348;28;20275;-77
2023/09/17 04:24:19;;;;;;;10.00;7.47;;;18.00;99.90;;;;;;5015131;28;20233;-77
2023/09/17 04:26:46;;;;;;;12.35;8.35;;;18.00;99.90;;;;;;5007419;28;20201;-76
2023/09/17 04:29:12;;;;;;;9.73;7.90;;;17.90;99.90;;;;;;5012288;28;20225;-75
2023/09/17 04:31:38;;;;;;;10.55;7.68;;;18.00;99.90;;;;;;5009805;28;20234;-76
2023/09/17 04:34:04;;;;;;;13.00;9.00;;;18.00;99.90;;;;;;5012524;28;20216;-76
2023/09/17 04:36:29;;;;;;;13.35;8.15;;;18.00;99.90;;;;;;5009143;28;20177;-77
2023/09/17 04:38:55;;;;;;;11.90;7.57;;;18.00;99.90;;;;;;5009274;28;20590;-76
2023/09/17 04:41:21;;;;;;;10.50;7.82;;;18.00;99.90;;;;;;5011845;28;20237;-77
2023/09/17 04:43:46;;;;;;;12.40;8.30;;;18.00;99.90;;;;;;5007021;28;20268;-78
2023/09/17 04:46:12;;;;;;;11.57;8.15;;;18.00;99.90;;;;;;5012240;28;20304;-77
2023/09/17 04:48:39;;;;;;;13.63;7.95;;;18.00;99.90;;;;;;5009709;28;20260;-76
2023/09/17 04:51:07;;;;;;;12.93;8.60;;;18.00;99.90;;;;;;5027448;28;20213;-76
2023/09/17 04:53:33;;;;;;;13.00;8.48;;;18.00;99.90;;;;;;5008102;28;20270;-76
2023/09/17 04:55:59;;;;;;;11.20;7.90;;;18.00;99.90;;;;;;5012276;28;20676;-76
2023/09/17 04:58:25;;;;;;;10.25;7.65;;;18.10;99.90;;;;;;5004137;28;20216;-75
2023/09/17 05:00:53;;;;;;;11.38;7.97;;;18.10;99.90;;;;;;5005463;28;20178;-76
2023/09/17 05:03:19;;;;;;;11.88;7.90;;;18.20;99.90;;;;;;5016240;28;20182;-76
2023/09/17 05:05:46;;;;;;;15.30;9.00;;;18.20;99.90;;;;;;5002613;28;20754;-78
2023/09/17 05:08:13;;;;;;;11.77;8.32;;;18.20;99.90;;;;;;5007832;28;20717;-78
2023/09/17 05:10:39;;;;;;;13.43;8.00;;;18.20;99.90;;;;;;5008889;28;20252;-78
2023/09/17 05:13:06;;;;;;;11.05;8.10;;;18.30;99.90;;;;;;5014178;28;20229;-76
2023/09/17 05:15:31;;;;;;;12.57;8.43;;;18.30;99.90;;;;;;5033993;28;20200;-78
2023/09/17 05:17:57;;;;;;;10.82;7.63;;;18.30;99.90;;;;;;5011784;28;20209;-78
2023/09/17 05:20:23;;;;;;;12.60;8.50;;;18.50;99.90;;;;;;5003354;28;20292;-76
2023/09/17 05:22:49;;;;;;;9.52;7.60;;;18.60;99.90;;;;;;5009170;28;20714;-77
2023/09/17 05:25:14;;;;;;;12.77;8.80;;;18.70;99.90;;;;;;5008525;28;20213;-77
2023/09/17 05:27:40;;;;;;;12.15;8.65;;;18.80;99.90;;;;;;5011577;28;20177;-76
2023/09/17 05:30:08;;;;;;;11.95;8.05;;;19.00;99.90;;;;;;5027122;28;20698;-78
2023/09/17 05:32:33;;;;;;;11.60;8.55;;;19.20;99.90;;;;;;5006175;28;20257;-76
2023/09/17 05:34:59;;;;;;;11.23;7.88;;;19.40;99.90;;;;;;5009928;28;20212;-76
2023/09/17 05:37:26;;;;;;;9.75;7.13;;;19.90;99.90;;;;;;5010854;28;20737;-77
2023/09/17 05:39:52;;;;;;;11.18;8.13;;;21.30;99.90;;;;;;5010889;28;20177;-76
2023/09/17 05:42:17;;;;;;;9.75;7.25;;;21.90;99.90;;;;;;5011507;28;20242;-76
2023/09/17 05:44:43;;;;;;;10.85;7.30;;;22.00;99.90;;;;;;5010099;28;20304;-77
2023/09/17 05:47:09;;;;;;;9.40;8.10;;;22.30;99.90;;;;;;5009632;28;20247;-76
2023/09/17 05:49:34;;;;;;;10.98;7.35;;;22.60;99.90;;;;;;5004784;28;20225;-77
2023/09/17 05:52:00;;;;;;;12.32;7.90;;;24.00;99.90;;;;;;5007971;28;20695;-77
2023/09/17 05:54:26;;;;;;;10.63;7.93;;;25.00;99.90;;;;;;5011772;28;20247;-77
2023/09/17 05:56:52;;;;;;;8.60;7.32;;;25.30;99.90;;;;;;5007061;28;20217;-76
2023/09/17 05:59:18;;;;;;;9.93;7.35;;;26.20;99.90;;;;;;5006973;28;20720;-76
2023/09/17 06:01:44;;;;;;;8.93;7.22;;;27.10;99.90;;;;;;5011487;28;20217;-76
2023/09/17 06:04:09;;;;;;;8.48;7.18;;;27.90;99.90;;;;;;5009995;28;20251;-77
2023/09/17 06:06:35;;;;;;;8.55;7.63;;;28.60;99.90;;;;;;5007417;28;20259;-74
2023/09/17 06:09:00;;;;;;;9.32;7.68;;;29.20;99.90;;;;;;5007340;28;20220;-76
2023/09/17 06:11:26;;;;;;;8.65;7.30;;;29.30;99.90;;;;;;5008975;28;20216;-73
2023/09/17 06:13:52;;;;;;;8.65;7.47;;;29.30;99.90;;;;;;5007758;28;20283;-77
2023/09/17 06:16:17;;;;;;;8.93;7.32;;;28.90;99.90;;;;;;5010598;28;20221;-76
2023/09/17 06:18:43;;;;;;;8.27;7.28;;;28.60;99.90;;;;;;5009397;28;20192;-75
2023/09/17 06:21:09;;;;;;;9.35;7.63;;;29.20;99.90;;;;;;5009013;28;20629;-76
2023/09/17 06:23:35;;;;;;;9.93;7.88;;;29.50;99.90;;;;;;5009010;28;20725;-77
2023/09/17 06:26:01;;;;;;;10.75;8.23;;;29.10;99.90;;;;;;5010325;28;20263;-77
2023/09/17 06:28:26;;;;;;;9.07;7.90;;;28.90;99.90;;;;;;5012434;28;20287;-77
2023/09/17 06:30:53;;;;;;;7.75;7.03;;;29.00;99.90;;;;;;5026716;28;20278;-76
2023/09/17 06:33:19;;;;;;;8.75;7.10;;;29.40;99.90;;;;;;5009012;28;20694;-76
2023/09/17 06:35:44;;;;;;;8.32;7.43;;;29.30;99.90;;;;;;5003154;28;20216;-76
2023/09/17 06:38:11;;;;;;;10.05;7.15;;;29.30;99.90;;;;;;5010276;28;20262;-76
2023/09/17 06:40:37;;;;;;;8.60;7.07;;;29.20;99.90;;;;;;5014011;28;20216;-77
2023/09/17 06:43:02;;;;;;;6.90;6.20;;;28.90;99.90;;;;;;5009981;28;20298;-74
2023/09/17 06:45:28;;;;;;;9.13;8.13;;;28.50;99.90;;;;;;5003385;28;20658;-77
2023/09/17 06:47:54;;;;;;;7.88;7.00;;;28.20;99.90;;;;;;5010758;28;20243;-76
2023/09/17 06:50:19;;;;;;;8.80;7.90;;;28.00;99.90;;;;;;5003997;28;20717;-77
2023/09/17 06:52:45;;;;;;;8.50;7.60;;;27.90;99.90;;;;;;5024363;28;20251;-77
2023/09/17 06:55:11;;;;;;;9.48;7.38;;;28.00;99.90;;;;;;5009286;28;20300;-78
2023/09/17 06:57:36;;;;;;;10.65;8.70;;;27.80;99.90;;;;;;5010255;28;20212;-76
2023/09/17 07:00:03;;;;;;;8.85;7.32;;;28.00;99.90;;;;;;5009146;28;20755;-78
2023/09/17 07:02:28;;;;;;;10.52;8.07;;;28.40;99.90;;;;;;5012434;28;20209;-78
2023/09/17 07:04:54;;;;;;;9.65;7.65;;;28.80;99.90;;;;;;5012660;28;20281;-78
2023/09/17 07:07:20;;;;;;;8.23;7.32;;;29.30;99.90;;;;;;5012111;28;20226;-74
2023/09/17 07:09:46;;;;;;;11.38;7.32;;;30.10;99.90;;;;;;5007697;28;20209;-79
2023/09/17 07:12:11;;;;;;;7.82;7.03;;;30.40;99.90;;;;;;5010186;28;20252;-79
2023/09/17 07:14:37;;;;;;;11.65;8.05;;;30.30;99.90;;;;;;5012028;28;20274;-78
2023/09/17 07:17:03;;;;;;;11.70;8.57;;;30.30;99.90;;;;;;5008829;28;20217;-78
2023/09/17 07:19:28;;;;;;;9.82;7.78;;;30.30;99.90;;;;;;5011960;28;20212;-78
2023/09/17 07:21:54;;;;;;;11.82;8.15;;;30.20;99.90;;;;;;5004756;28;20173;-78
2023/09/17 07:24:20;;;;;;;10.45;7.40;;;30.80;99.90;;;;;;5025259;28;20275;-79
2023/09/17 07:26:45;;;;;;;9.38;8.18;;;31.10;99.90;;;;;;5008970;28;20204;-76
2023/09/17 07:29:11;;;;;;;8.48;7.45;;;31.10;99.90;;;;;;5004055;28;20225;-78
2023/09/17 07:31:37;;;;;;;8.50;7.60;;;30.90;99.90;;;;;;5006764;28;20435;-78
2023/09/17 07:34:03;;;;;;;10.45;7.55;;;30.70;99.90;;;;;;5028109;28;20274;-77
2023/09/17 07:36:29;;;;;;;8.80;7.38;;;30.90;99.90;;;;;;5012020;28;20169;-78
2023/09/17 07:38:55;;;;;;;9.20;7.80;;;31.00;99.90;;;;;;5001018;28;20217;-78
2023/09/17 07:41:20;;;;;;;8.50;7.60;;;31.00;99.90;;;;;;5011560;28;20224;-78
2023/09/17 07:43:46;;;;;;;10.85;7.32;;;32.30;99.90;;;;;;5006812;28;20228;-79
2023/09/17 07:46:13;;;;;;;8.05;7.25;;;33.40;99.90;;;;;;5023936;28;20212;-80
2023/09/17 07:48:39;;;;;;;8.65;7.75;;;33.90;99.90;;;;;;5016160;28;20200;-80
2023/09/17 07:51:05;;;;;;;7.90;7.10;;;34.20;99.90;;;;;;5011777;28;20205;-79
2023/09/17 07:53:32;;;;;;;9.63;7.97;;;34.50;99.90;;;;;;5012125;28;20651;-79
2023/09/17 07:55:58;;;;;;;8.00;6.85;;;33.70;99.90;;;;;;5016559;28;20307;-79
2023/09/17 07:58:24;;;;;;;9.15;8.20;;;33.40;99.90;;;;;;5015353;28;20232;-78
2023/09/17 08:00:50;;;;;;;10.05;8.13;;;32.80;99.90;;;;;;5009430;28;20264;-78
2023/09/17 08:03:16;;;;;;;8.18;7.18;;;32.90;99.90;;;;;;5017629;28;20184;-79
2023/09/17 08:05:52;;;;;;;12.93;6.85;;;33.30;99.90;;;;;;5018413;28;20204;-80
2023/09/17 08:08:18;;;;;;;11.98;6.95;;;33.20;99.90;;;;;;5022320;28;20266;-78
2023/09/17 08:10:44;;;;;;;7.57;6.57;;;33.00;99.90;;;;;;5011153;28;20208;-78
2023/09/17 08:13:09;;;;;;;13.18;7.20;;;33.10;99.90;;;;;;5014306;28;20215;-79
2023/09/17 08:15:35;;;;;;;8.20;7.40;;;32.90;99.90;;;;;;5012016;28;20722;-78
2023/09/17 08:18:01;;;;;;;7.32;6.70;;;32.80;99.90;;;;;;5013350;28;20204;-79
2023/09/17 08:20:27;;;;;;;8.30;6.65;;;32.50;99.90;;;;;;5018861;28;20254;-78
2023/09/17 08:22:52;;;;;;;7.80;7.00;;;32.50;99.90;;;;;;5014821;28;20197;-79
2023/09/17 08:25:18;;;;;;;8.68;7.40;;;32.80;99.90;;;;;;5015226;28;20220;-78
2023/09/17 08:27:46;;;;;;;7.88;7.05;;;32.40;99.90;;;;;;5031001;28;20177;-78
2023/09/17 08:30:13;;;;;;;8.30;6.93;;;32.00;99.90;;;;;;5015484;28;20207;-79
2023/09/17 08:32:41;;;;;;;9.77;7.43;;;32.20;99.90;;;;;;5012445;28;20201;-80
2023/09/17 08:35:07;;;;;;;8.50;7.25;;;31.40;99.90;;;;;;5015591;28;20205;-78
2023/09/17 08:37:35;;;;;;;8.70;7.50;;;31.70;99.90;;;;;;5012138;28;20211;-79
2023/09/17 08:40:01;;;;;;;10.52;7.88;;;31.30;99.90;;;;;;5012610;28;20288;-79
2023/09/17 08:42:27;;;;;;;8.55;7.22;;;30.80;99.90;;;;;;5015962;28;20169;-77
2023/09/17 08:44:56;;;;;;;9.07;7.55;;;30.20;99.90;;;;;;5011505;28;20299;-77
2023/09/17 08:47:22;;;;;;;9.13;7.80;;;30.70;99.90;;;;;;5009733;28;20208;-76
2023/09/17 08:49:48;;;;;;;8.07;6.28;;;30.60;99.90;;;;;;5010725;28;20212;-76
2023/09/17 08:52:17;;;;;;;8.48;6.63;;;30.60;99.90;;;;;;5008044;28;20274;-78
2023/09/17 08:54:43;;;;;;;8.73;6.72;;;30.80;99.90;;;;;;5026517;28;20213;-77
2023/09/17 08:57:12;;;;;;;10.63;6.78;;;30.90;99.90;;;;;;5028863;28;20254;-78
2023/09/17 08:59:45;;;;;;;11.27;6.93;;;30.30;99.90;;;;;;5017883;28;20213;-77
2023/09/17 09:02:24;;;;;;;8.55;6.90;;;29.30;99.90;;;;;;5009576;28;20213;-76
2023/09/17 09:04:51;;;;;;;12.68;7.55;;;28.50;99.90;;;;;;5011399;28;20243;-76
2023/09/17 09:07:24;;;;;;;10.57;6.30;;;29.20;99.90;;;;;;5010548;28;20212;-77
2023/09/17 09:09:54;;;;;;;8.98;6.45;;;29.70;99.90;;;;;;5010731;28;20267;-77
2023/09/17 09:12:20;;;;;;;10.35;6.38;;;29.90;99.90;;;;;;5004499;28;20173;-76
2023/09/17 09:14:47;;;;;;;9.40;7.00;;;30.00;99.90;;;;;;5025974;28;20275;-77
2023/09/17 09:17:13;;;;;;;8.40;5.97;;;30.50;99.90;;;;;;5001926;28;20208;-78
2023/09/17 09:19:40;;;;;;;9.20;6.78;;;30.70;99.90;;;;;;5010851;28;20791;-78
2023/09/17 09:22:05;;;;;;;10.25;7.10;;;30.90;99.90;;;;;;5005689;28;20208;-77
2023/09/17 09:24:42;;;;;;;10.23;7.38;;;30.10;99.90;;;;;;5011693;28;20193;-77
2023/09/17 09:27:08;;;;;;;7.88;6.32;;;30.30;99.90;;;;;;5008774;28;20235;-77
2023/09/17 09:29:34;;;;;;;8.45;5.80;;;30.50;99.90;;;;;;5027785;28;20638;-78
2023/09/17 09:32:00;;;;;;;6.63;5.40;;;30.60;99.90;;;;;;5008737;28;20256;-77
2023/09/17 09:34:27;;;;;;;6.85;5.95;;;30.90;99.90;;;;;;5005019;28;20214;-78
2023/09/17 09:36:53;;;;;;;11.55;7.30;;;30.90;99.90;;;;;;5006869;28;20563;-77
2023/09/17 09:39:20;;;;;;;9.25;6.88;;;30.40;99.90;;;;;;5010573;28;20658;-77
2023/09/17 09:41:46;;;;;;;10.18;7.60;;;30.70;99.90;;;;;;5008141;28;20710;-77
2023/09/17 09:44:12;;;;;;;7.90;6.28;;;30.80;99.90;;;;;;5010835;28;20400;-77
2023/09/17 09:46:38;;;;;;;10.00;5.93;;;30.10;99.90;;;;;;5019208;28;20697;-77
2023/09/17 09:49:04;;;;;;;14.45;9.55;;;30.30;99.90;;;;;;5010451;28;20228;-78
2023/09/17 09:51:31;;;;;;;12.35;8.10;;;30.90;99.90;;;;;;5003774;28;20200;-77
2023/09/17 09:53:57;;;;;;;11.55;8.13;;;31.00;99.90;;;;;;5002471;28;20214;-77
2023/09/17 09:56:27;;;;;;;10.02;7.50;;;31.10;99.90;;;;;;5004354;28;20205;-76
2023/09/17 09:58:55;;;;;;;8.50;6.43;;;30.90;99.90;;;;;;5005647;28;20209;-77
2023/09/17 10:01:20;;;;;;;10.32;6.13;;;31.00;99.90;;;;;;5027536;28;20885;-77
2023/09/17 10:03:47;;;;;;;7.43;6.55;;;31.10;99.90;;;;;;5005895;28;20339;-78
2023/09/17 10:06:14;;;;;;;9.23;6.53;;;31.00;99.90;;;;;;5010558;28;20232;-78
2023/09/17 10:08:40;;;;;;;11.45;7.25;;;31.10;99.90;;;;;;5005054;28;20215;-73
2023/09/17 10:11:09;;;;;;;10.25;6.93;;;31.20;99.90;;;;;;5007700;28;20241;-75
2023/09/17 10:13:35;;;;;;;6.68;5.70;;;31.10;99.90;;;;;;5008309;28;20208;-75
2023/09/17 10:16:02;;;;;;;8.50;6.43;;;30.70;99.90;;;;;;5028788;28;20699;-74
2023/09/17 10:18:30;;;;;;;7.85;5.70;;;29.80;99.90;;;;;;5009874;28;20185;-76
2023/09/17 10:20:57;;;;;;;7.63;6.50;;;29.90;99.90;;;;;;5009410;28;20213;-76
2023/09/17 10:23:24;;;;;;;7.38;5.55;;;29.40;99.90;;;;;;5009865;28;20228;-74
2023/09/17 10:25:51;;;;;;;6.78;5.65;;;29.20;99.90;;;;;;5009536;28;20210;-75
2023/09/17 10:28:18;;;;;;;6.22;5.30;;;29.40;99.90;;;;;;5010425;28;20726;-75
2023/09/17 10:30:45;;;;;;;8.38;5.55;;;29.10;99.90;;;;;;5009673;28;20187;-75
2023/09/17 10:33:14;;;;;;;5.60;4.80;;;29.80;99.90;;;;;;5010991;28;20208;-74
2023/09/17 10:35:42;;;;;;;8.25;5.80;;;30.10;99.90;;;;;;5006769;28;20209;-74
2023/09/17 10:38:09;;;;;;;7.95;4.95;;;30.30;99.90;;;;;;5007257;28;20543;-74
2023/09/17 10:40:36;;;;;;;11.75;6.38;;;30.40;99.90;;;;;;5009498;28;20295;-74
2023/09/17 10:43:04;;;;;;;17.17;9.55;;;30.50;99.90;;;;;;5025178;28;20204;-75
2023/09/17 10:45:33;;;;;;;18.42;12.82;;;30.90;99.90;;;;;;5027967;28;20754;-74
2023/09/17 10:48:02;;;;;;;9.80;7.50;;;30.90;99.90;;;;;;5007897;28;20803;-72
2023/09/17 10:50:27;;;;;;;6.30;5.63;;;31.00;99.90;;;;;;5008614;28;20380;-75
2023/09/17 10:52:53;;;;;;;7.45;6.00;;;30.80;99.90;;;;;;5010005;28;20204;-74
2023/09/17 10:55:22;;;;;;;6.00;5.35;;;30.20;99.90;;;;;;5006767;28;20300;-75
2023/09/17 10:57:56;;;;;;;7.35;6.05;;;30.50;99.90;;;;;;5008835;28;20234;-75
2023/09/17 11:00:23;;;;;;;6.25;5.22;;;29.70;99.90;;;;;;5012617;28;20561;-75
2023/09/17 11:02:56;;;;;;;8.00;7.10;;;29.50;99.90;;;;;;5011820;28;20752;-75
2023/09/17 11:05:24;;;;;;;6.70;5.82;;;29.70;99.90;;;;;;5013745;28;20227;-74
2023/09/17 11:07:54;;;;;;;7.25;5.70;;;29.60;99.90;;;;;;5013185;28;20221;-73
2023/09/17 11:10:20;;;;;;;7.05;5.38;;;29.50;99.90;;;;;;5009554;28;20375;-75
2023/09/17 11:12:47;;;;;;;9.30;5.57;;;29.60;99.90;;;;;;5004359;28;20183;-74
2023/09/17 11:15:13;;;;;;;7.95;4.72;;;29.60;99.90;;;;;;5007855;28;20228;-74
2023/09/17 11:17:39;;;;;;;5.00;4.07;;;29.90;99.90;;;;;;5012150;28;20213;-73
2023/09/17 11:20:14;;;;;;;5.55;4.78;;;30.00;99.90;;;;;;5010650;28;20210;-75
2023/09/17 11:22:41;;;;;;;8.40;5.30;;;29.60;99.90;;;;;;5007704;28;20243;-75
2023/09/17 11:25:09;;;;;;;9.05;6.00;;;29.40;99.90;;;;;;5030306;28;20227;-75
2023/09/17 11:27:50;;;;;;;7.90;4.47;;;29.70;99.90;;;;;;5013850;28;20211;-73
2023/09/17 11:30:22;;;;;;;7.35;5.70;;;29.80;99.90;;;;;;5009299;28;20235;-74
2023/09/17 11:32:52;;;;;;;6.63;5.20;;;29.80;99.90;;;;;;5006716;28;20224;-74
2023/09/17 11:35:23;;;;;;;5.07;4.32;;;29.70;99.90;;;;;;5009935;28;20248;-74
2023/09/17 11:37:50;;;;;;;4.95;4.03;;;29.80;99.90;;;;;;5011568;28;20324;-75
2023/09/17 11:40:18;;;;;;;4.13;3.70;;;29.60;99.90;;;;;;5013148;28;20213;-74
2023/09/17 11:42:45;;;;;;;4.38;3.47;;;29.50;99.90;;;;;;5020193;28;20177;-74
2023/09/17 11:45:11;;;;;;;5.50;4.40;;;29.70;99.90;;;;;;5012965;28;20196;-73
2023/09/17 11:47:38;;;;;;;4.35;3.10;;;29.80;99.90;;;;;;5011793;28;20216;-74
2023/09/17 11:50:08;;;;;;;4.97;4.13;;;29.60;99.90;;;;;;5011624;28;20217;-75
2023/09/17 11:52:33;;;;;;;5.78;4.05;;;29.20;99.90;;;;;;5028025;28;20217;-73
2023/09/17 11:55:11;;;;;;;5.40;3.97;;;29.20;99.90;;;;;;5007269;28;20778;-75
2023/09/17 11:57:37;;;;;;;4.68;3.83;;;29.20;99.90;;;;;;5006943;28;20176;-75
2023/09/17 12:00:09;;;;;;;4.47;3.95;;;29.40;99.90;;;;;;5004976;28;20210;-74
2023/09/17 12:02:36;;;;;;;5.25;4.28;;;29.40;99.90;;;;;;5027070;28;20621;-74
2023/09/17 12:05:04;;;;;;;3.90;3.60;;;29.50;99.90;;;;;;5006380;28;20783;-74
2023/09/17 12:07:30;;;;;;;4.07;3.67;;;29.60;99.90;;;;;;5011193;28;20679;-74
2023/09/17 12:10:03;;;;;;;6.90;4.57;;;29.70;99.90;;;;;;5006537;28;20201;-72
2023/09/17 12:12:36;;;;;;;4.78;4.22;;;29.80;99.90;;;;;;5011053;28;20638;-75
2023/09/17 12:15:09;;;;;;;5.07;4.57;;;29.40;99.90;;;;;;5010051;28;20586;-75
2023/09/17 12:17:36;;;;;;;5.03;4.32;;;29.20;99.90;;;;;;5007028;28;20202;-73
2023/09/17 12:20:10;;;;;;;7.45;4.57;;;29.50;99.90;;;;;;5011436;28;20224;-75
2023/09/17 12:22:35;;;;;;;9.68;7.10;;;29.50;99.90;;;;;;5007640;28;20259;-74
2023/09/17 12:25:13;;;;;;;6.65;4.78;;;29.50;99.90;;;;;;5011442;28;20213;-73
2023/09/17 12:27:46;;;;;;;6.43;4.50;;;29.60;99.90;;;;;;5009734;28;20184;-74
2023/09/17 12:30:13;;;;;;;8.50;4.75;;;29.50;99.90;;;;;;5008551;28;20730;-73
2023/09/17 12:32:39;;;;;;;5.20;4.70;;;29.50;99.90;;;;;;5004923;28;20767;-75
2023/09/17 12:35:06;;;;;;;6.35;4.28;;;29.40;99.90;;;;;;5000062;28;20293;-75
2023/09/17 12:37:32;;;;;;;5.15;4.63;;;29.40;99.90;;;;;;5007341;28;20263;-72
2023/09/17 12:39:58;;;;;;;7.13;5.32;;;29.50;99.90;;;;;;5008937;28;20185;-76
2023/09/17 12:42:24;;;;;;;5.40;4.05;;;29.30;99.90;;;;;;5010719;28;20605;-75